Time;durP1;ratioP1;P1;durP2;ratioP2;P2;SDS_P1;SDS_P2;PMS_P1;PMS_P2;Temp;Humidity;BMP_temperature;BMP_pressure;BME280_temperature;BME280_humidity;BME280_pressure;Samples;Min_cycle;Max_cycle;Signal;HPM_P1;HPM_P2
2024/01/10 00:00:17;;;;;;;5.43;4.93;;;;;;;-4.29;65.52;95968.38;5122847;27;20281;-68
2024/01/10 00:02:45;;;;;;;5.00;4.50;;;;;;;-4.25;65.86;95964.16;5122448;27;20259;-68
2024/01/10 00:05:13;;;;;;;4.63;4.22;;;;;;;-4.27;65.03;95965.44;5123072;27;20579;-68
2024/01/10 00:07:39;;;;;;;4.97;4.55;;;;;;;-4.28;65.32;95969.22;5122119;27;20299;-68
2024/01/10 00:10:08;;;;;;;5.15;4.72;;;;;;;-4.32;65.03;95963.47;5122883;27;20252;-68
2024/01/10 00:12:36;;;;;;;5.80;5.20;;;;;;;-4.31;65.70;95965.09;5122165;27;20209;-68
2024/01/10 00:15:04;;;;;;;6.20;5.68;;;;;;;-4.26;65.74;95965.19;5121511;27;20256;-69
2024/01/10 00:17:33;;;;;;;5.95;5.35;;;;;;;-4.25;65.96;95958.78;5140418;27;20197;-69
2024/01/10 00:20:01;;;;;;;5.78;5.18;;;;;;;-4.21;66.17;95968.03;5122128;27;20191;-68
2024/01/10 00:22:28;;;;;;;4.82;4.43;;;;;;;-4.21;65.61;95968.03;5122370;27;20215;-68
2024/01/10 00:24:55;;;;;;;4.88;4.38;;;;;;;-4.17;66.04;95974.56;5122321;27;20251;-68
2024/01/10 00:27:22;;;;;;;6.57;4.22;;;;;;;-4.19;65.82;95962.38;5122405;27;20578;-69
2024/01/10 00:29:51;;;;;;;4.60;4.20;;;;;;;-4.18;65.57;95975.59;5122421;27;20195;-69
2024/01/10 00:32:18;;;;;;;4.53;4.10;;;;;;;-4.19;65.32;95976.66;5121819;27;20618;-69
2024/01/10 00:34:45;;;;;;;4.80;4.45;;;;;;;-4.17;65.15;95979.13;5122461;27;20255;-69
2024/01/10 00:37:13;;;;;;;4.38;4.07;;;;;;;-4.15;65.30;95980.50;5140064;27;20260;-69
2024/01/10 00:39:40;;;;;;;4.25;3.95;;;;;;;-4.17;65.27;95982.66;5122536;27;20188;-69
2024/01/10 00:42:07;;;;;;;5.15;4.75;;;;;;;-4.16;65.47;95978.88;5121786;27;20216;-69
2024/01/10 00:44:34;;;;;;;5.03;4.60;;;;;;;-4.11;65.69;95978.97;5122115;27;20187;-69
2024/01/10 00:47:01;;;;;;;4.70;4.30;;;;;;;-4.04;66.11;95986.94;5121849;27;20217;-69
2024/01/10 00:49:28;;;;;;;4.72;4.32;;;;;;;-4.00;65.87;95981.88;5121302;27;20203;-69
2024/01/10 00:51:55;;;;;;;4.63;4.22;;;;;;;-3.98;65.48;95983.28;5122242;27;20191;-69
2024/01/10 00:54:23;;;;;;;4.28;3.97;;;;;;;-3.98;64.84;95979.78;5121937;27;20203;-69
2024/01/10 00:56:51;;;;;;;3.78;3.47;;;;;;;-3.95;65.16;95976.63;5121175;27;20263;-69
2024/01/10 00:59:18;;;;;;;4.60;4.20;;;;;;;-3.93;64.25;95985.25;5121339;27;20207;-69
2024/01/10 01:01:45;;;;;;;5.18;4.75;;;;;;;-3.97;63.83;95984.94;5120915;27;20214;-69
2024/01/10 01:04:12;;;;;;;5.05;4.65;;;;;;;-3.98;64.40;95977.09;5121863;27;20195;-69
2024/01/10 01:06:39;;;;;;;4.95;4.55;;;;;;;-3.98;64.00;95977.91;5121620;27;20264;-69
2024/01/10 01:09:06;;;;;;;3.92;3.63;;;;;;;-4.02;63.38;95973.25;5121115;27;20256;-69
2024/01/10 01:11:35;;;;;;;4.78;4.38;;;;;;;-4.05;63.78;95968.31;5121511;27;20199;-69
2024/01/10 01:14:01;;;;;;;4.30;3.90;;;;;;;-4.11;63.66;95976.28;5114197;28;20239;-68
2024/01/10 01:16:28;;;;;;;4.20;3.90;;;;;;;-4.11;64.45;95978.16;5101421;28;20196;-68
2024/01/10 01:18:55;;;;;;;4.68;4.28;;;;;;;-4.20;63.55;95974.22;5100645;28;20253;-68
2024/01/10 01:21:22;;;;;;;3.80;3.50;;;;;;;-4.22;64.27;95976.31;5100174;28;20208;-68
2024/01/10 01:23:49;;;;;;;3.83;3.53;;;;;;;-4.21;64.69;95968.03;5101031;28;20199;-68
2024/01/10 01:26:16;;;;;;;4.00;3.70;;;;;;;-4.18;64.40;95969.41;5100305;28;20207;-68
2024/01/10 01:28:45;;;;;;;4.10;3.80;;;;;;;-4.16;64.30;95967.28;5100108;28;20203;-68
2024/01/10 01:31:12;;;;;;;4.50;4.18;;;;;;;-4.13;64.58;95964.94;5100404;28;20188;-68
2024/01/10 01:33:39;;;;;;;4.65;4.25;;;;;;;-4.08;64.63;95966.09;5101032;28;20200;-68
2024/01/10 01:36:07;;;;;;;4.40;4.00;;;;;;;-4.07;63.95;95957.75;5099898;28;20298;-68
2024/01/10 01:38:34;;;;;;;4.28;3.88;;;;;;;-4.04;64.22;95953.78;5100168;28;20191;-69
2024/01/10 01:41:02;;;;;;;4.07;3.78;;;;;;;-4.02;64.58;95946.28;5099843;28;20529;-69
2024/01/10 01:43:30;;;;;;;3.90;3.58;;;;;;;-3.96;64.44;95953.41;5100183;28;20195;-69
2024/01/10 01:45:58;;;;;;;3.72;3.42;;;;;;;-3.94;63.89;95962.88;5100332;28;20202;-69
2024/01/10 01:48:26;;;;;;;4.15;3.70;;;;;;;-3.90;64.44;95953.25;5099869;28;20187;-69
2024/01/10 01:50:55;;;;;;;3.15;2.95;;;;;;;-3.93;63.67;95959.13;5100464;28;20283;-69
2024/01/10 01:53:23;;;;;;;3.80;3.50;;;;;;;-3.93;63.71;95958.31;5099920;28;20196;-69
2024/01/10 01:55:50;;;;;;;3.53;3.33;;;;;;;-3.93;63.38;95958.31;5100540;28;20192;-69
2024/01/10 01:58:18;;;;;;;3.90;3.53;;;;;;;-3.93;63.53;95950.22;5099430;28;20248;-69
2024/01/10 02:00:45;;;;;;;3.83;3.53;;;;;;;-3.97;62.98;95951.75;5099839;28;20276;-69
2024/01/10 02:03:13;;;;;;;3.78;3.45;;;;;;;-4.00;62.89;95947.66;5099578;28;20207;-69
2024/01/10 02:05:40;;;;;;;3.47;3.20;;;;;;;-4.00;63.03;95939.59;5099845;28;20192;-69
2024/01/10 02:08:07;;;;;;;3.75;3.45;;;;;;;-4.04;62.87;95935.72;5099794;28;20237;-69
2024/01/10 02:10:34;;;;;;;3.50;3.20;;;;;;;-4.07;63.11;95936.22;5099838;28;20192;-69
2024/01/10 02:13:02;;;;;;;3.40;3.10;;;;;;;-4.04;63.51;95934.91;5099891;28;20245;-69
2024/01/10 02:15:31;;;;;;;3.95;3.10;;;;;;;-4.03;63.93;95940.09;5098993;28;20723;-69
2024/01/10 02:17:58;;;;;;;3.35;3.05;;;;;;;-4.00;63.49;95939.59;5099865;28;20191;-69
2024/01/10 02:20:26;;;;;;;3.45;3.15;;;;;;;-3.99;63.96;95940.44;5098714;28;20192;-69
2024/01/10 02:22:53;;;;;;;3.75;3.45;;;;;;;-3.95;63.43;95936.19;5099167;28;20223;-69
2024/01/10 02:25:22;;;;;;;3.20;2.90;;;;;;;-3.94;64.03;95938.63;5099699;28;20252;-68
2024/01/10 02:27:49;;;;;;;3.72;3.42;;;;;;;-3.92;63.88;95930.31;5098911;28;20237;-68
2024/01/10 02:30:16;;;;;;;3.70;3.50;;;;;;;-3.93;63.62;95931.34;5099596;28;20192;-69
2024/01/10 02:32:43;;;;;;;4.00;3.70;;;;;;;-3.95;63.57;95931.63;5098862;28;20257;-69
2024/01/10 02:35:10;;;;;;;4.30;3.90;;;;;;;-3.93;63.48;95932.16;5099329;28;20196;-70
2024/01/10 02:37:37;;;;;;;4.07;3.78;;;;;;;-3.93;63.52;95937.56;5099038;28;20200;-68
2024/01/10 02:40:05;;;;;;;4.07;3.75;;;;;;;-3.93;63.37;95931.34;5099282;28;20225;-68
2024/01/10 02:42:34;;;;;;;4.07;3.78;;;;;;;-3.93;63.80;95932.16;5098829;28;20211;-69
2024/01/10 02:45:01;;;;;;;4.30;4.00;;;;;;;-3.93;64.18;95931.34;5099466;28;20261;-69
2024/01/10 02:47:29;;;;;;;4.28;3.97;;;;;;;-3.93;63.62;95936.75;5098917;28;20195;-69
2024/01/10 02:49:56;;;;;;;3.95;3.65;;;;;;;-3.96;63.16;95942.63;5098700;28;20196;-69
2024/01/10 02:52:22;;;;;;;4.05;3.75;;;;;;;-3.98;63.11;95945.56;5098489;28;20245;-69
2024/01/10 02:54:49;;;;;;;4.47;4.10;;;;;;;-3.97;62.59;95936.41;5099037;28;20272;-69
2024/01/10 02:57:16;;;;;;;4.10;3.70;;;;;;;-3.99;62.45;95943.13;5098886;28;20211;-69
2024/01/10 02:59:45;;;;;;;4.13;3.78;;;;;;;-4.00;62.99;95942.28;5098878;28;20208;-69
2024/01/10 03:02:12;;;;;;;4.38;4.07;;;;;;;-4.01;63.15;95937.94;5098719;28;20212;-69
2024/01/10 03:04:39;;;;;;;4.32;3.92;;;;;;;-4.00;62.53;95933.38;5099462;28;20252;-69
2024/01/10 03:07:06;;;;;;;4.30;3.90;;;;;;;-3.99;63.22;95932.34;5098686;28;20203;-69
2024/01/10 03:09:33;;;;;;;3.72;3.42;;;;;;;-3.99;62.10;95933.16;5098150;28;20185;-69
2024/01/10 03:12:00;;;;;;;3.90;3.60;;;;;;;-4.00;61.40;95934.19;5098364;28;20208;-69
2024/01/10 03:14:26;;;;;;;3.90;3.60;;;;;;;-3.99;62.07;95935.84;5104431;27;20275;-69
2024/01/10 03:16:55;;;;;;;3.95;3.63;;;;;;;-4.00;62.69;95934.19;5119562;27;20187;-69
2024/01/10 03:19:22;;;;;;;4.30;4.00;;;;;;;-4.00;61.95;95938.78;5119138;27;20232;-69
2024/01/10 03:21:49;;;;;;;3.97;3.67;;;;;;;-3.98;61.56;95944.75;5118337;27;20716;-69
2024/01/10 03:24:16;;;;;;;4.38;4.00;;;;;;;-3.93;62.23;95942.13;5118827;28;20290;-69
2024/01/10 03:26:43;;;;;;;4.15;3.85;;;;;;;-3.91;61.77;95948.13;5118747;27;20195;-69
2024/01/10 03:29:10;;;;;;;3.92;3.67;;;;;;;-3.92;61.14;95947.31;5118919;27;20663;-69
2024/01/10 03:31:37;;;;;;;4.05;3.75;;;;;;;-3.96;60.02;95945.31;5117850;27;20187;-70
2024/01/10 03:34:06;;;;;;;3.97;3.67;;;;;;;-3.98;60.85;95944.75;5118439;27;20290;-70
2024/01/10 03:36:33;;;;;;;4.15;3.85;;;;;;;-3.98;61.75;95948.25;5118952;27;20190;-70
2024/01/10 03:39:00;;;;;;;4.00;3.70;;;;;;;-3.95;61.24;95952.34;5118570;27;20191;-70
2024/01/10 03:41:27;;;;;;;3.90;3.60;;;;;;;-3.92;61.41;95946.50;5118340;27;20195;-70
2024/01/10 03:43:54;;;;;;;4.15;3.85;;;;;;;-3.90;61.35;95950.56;5117986;28;20211;-69
2024/01/10 03:46:21;;;;;;;4.18;3.80;;;;;;;-3.87;60.99;95955.47;5118452;28;20214;-69
2024/01/10 03:48:48;;;;;;;4.10;3.35;;;;;;;-3.90;60.18;95947.88;5118262;28;20525;-70
2024/01/10 03:51:18;;;;;;;3.75;3.45;;;;;;;-3.89;59.60;95951.38;5136717;27;20190;-70
2024/01/10 03:53:45;;;;;;;3.38;3.10;;;;;;;-3.85;59.94;95952.53;5118529;28;20651;-70
2024/01/10 03:56:13;;;;;;;3.72;3.40;;;;;;;-3.84;60.23;95947.97;5118680;28;20627;-70
2024/01/10 03:58:40;;;;;;;3.42;3.17;;;;;;;-3.80;59.40;95958.03;5118452;28;20195;-70
2024/01/10 04:01:07;;;;;;;3.58;3.28;;;;;;;-3.78;59.47;95950.50;5118701;28;20191;-69
2024/01/10 04:03:34;;;;;;;3.90;3.60;;;;;;;-3.75;59.13;95952.72;5118326;28;20207;-72
2024/01/10 04:06:02;;;;;;;3.55;3.25;;;;;;;-3.75;58.75;95950.03;5118737;28;20183;-72
2024/01/10 04:08:31;;;;;;;3.35;3.08;;;;;;;-3.80;59.33;95946.44;5118460;28;20201;-72
2024/01/10 04:10:58;;;;;;;3.10;2.75;;;;;;;-3.82;58.50;95952.06;5118306;28;20520;-72
2024/01/10 04:13:25;;;;;;;3.33;3.10;;;;;;;-3.84;57.71;95953.38;5118877;28;20197;-73
2024/01/10 04:15:52;;;;;;;2.83;2.63;;;;;;;-3.93;58.02;95956.44;5117514;28;20714;-72
2024/01/10 04:18:19;;;;;;;3.10;2.90;;;;;;;-3.92;58.57;95963.47;5118219;28;20286;-72
2024/01/10 04:20:46;;;;;;;3.20;3.00;;;;;;;-3.87;58.99;95960.06;5118191;28;20191;-72
2024/01/10 04:23:13;;;;;;;3.42;3.13;;;;;;;-3.89;58.71;95960.28;5118594;28;20229;-72
2024/01/10 04:25:42;;;;;;;3.72;3.25;;;;;;;-3.92;58.62;95965.38;5117685;28;20191;-72
2024/01/10 04:28:09;;;;;;;3.25;2.97;;;;;;;-3.92;59.23;95968.06;5118104;28;20192;-72
2024/01/10 04:30:36;;;;;;;3.30;2.95;;;;;;;-3.91;59.21;95958.91;5118158;28;20187;-72
2024/01/10 04:33:03;;;;;;;3.20;2.90;;;;;;;-3.89;59.09;95972.94;5117751;28;20187;-72
2024/01/10 04:35:30;;;;;;;2.83;2.63;;;;;;;-3.83;59.69;95973.88;5118332;28;20531;-72
2024/01/10 04:37:57;;;;;;;3.40;3.10;;;;;;;-3.82;58.50;95979.00;5118444;28;20183;-72
2024/01/10 04:40:24;;;;;;;2.90;2.70;;;;;;;-3.82;58.90;95984.41;5118608;28;20187;-72
2024/01/10 04:42:52;;;;;;;2.65;2.45;;;;;;;-3.81;58.87;95982.53;5118582;27;20654;-72
2024/01/10 04:45:19;;;;;;;2.95;2.70;;;;;;;-3.83;58.58;95988.16;5121979;27;20248;-71
2024/01/10 04:47:46;;;;;;;3.67;3.25;;;;;;;-3.85;58.76;95994.84;5121856;27;20271;-71
2024/01/10 04:50:13;;;;;;;2.90;2.70;;;;;;;-3.83;58.67;95998.13;5121315;27;20276;-71
2024/01/10 04:52:40;;;;;;;2.90;2.70;;;;;;;-3.81;59.07;95998.69;5121780;27;20235;-72
2024/01/10 04:55:08;;;;;;;4.10;3.70;;;;;;;-3.84;58.43;95993.81;5122102;27;20200;-72
2024/01/10 04:57:35;;;;;;;3.20;2.92;;;;;;;-3.84;59.14;95991.13;5121836;27;20302;-72
2024/01/10 05:00:05;;;;;;;3.70;3.13;;;;;;;-3.86;58.77;95999.41;5121749;27;20206;-72
2024/01/10 05:02:32;;;;;;;3.30;3.10;;;;;;;-3.80;59.64;96001.16;5120996;27;20294;-72
2024/01/10 05:04:59;;;;;;;5.15;4.85;;;;;;;-3.74;60.58;95999.38;5121014;27;20199;-72
2024/01/10 05:07:26;;;;;;;3.67;3.38;;;;;;;-3.72;59.11;95994.56;5121337;27;20207;-70
2024/01/10 05:09:53;;;;;;;4.00;3.70;;;;;;;-3.75;58.73;95995.06;5120810;27;20475;-71
2024/01/10 05:12:20;;;;;;;3.92;3.63;;;;;;;-3.77;58.81;95998.00;5121611;27;20206;-71
2024/01/10 05:14:47;;;;;;;4.10;3.70;;;;;;;-3.79;58.89;96000.09;5107675;28;20239;-71
2024/01/10 05:17:15;;;;;;;5.10;4.60;;;;;;;-3.81;58.18;96004.94;5100330;28;20199;-71
2024/01/10 05:19:42;;;;;;;3.95;3.58;;;;;;;-3.81;58.47;96001.38;5100593;28;20525;-72
2024/01/10 05:22:09;;;;;;;4.05;3.60;;;;;;;-3.81;58.11;96006.78;5100415;28;20200;-72
2024/01/10 05:24:36;;;;;;;3.50;3.30;;;;;;;-3.81;57.59;96009.47;5100193;28;20245;-72
2024/01/10 05:27:04;;;;;;;3.70;3.50;;;;;;;-3.84;57.13;96004.59;5100197;28;20290;-72
2024/01/10 05:29:31;;;;;;;3.72;3.42;;;;;;;-3.81;57.85;95996.84;5101234;28;20213;-72
2024/01/10 05:31:57;;;;;;;3.55;3.25;;;;;;;-3.81;58.17;96007.63;5100954;28;20192;-72
2024/01/10 05:34:26;;;;;;;3.63;3.30;;;;;;;-3.81;56.47;96015.72;5100761;28;20187;-72
2024/01/10 05:36:53;;;;;;;3.67;3.38;;;;;;;-3.88;55.61;96012.34;5100737;28;20210;-73
2024/01/10 05:39:21;;;;;;;4.20;3.90;;;;;;;-3.90;56.45;96015.25;5100408;28;20225;-73
2024/01/10 05:41:48;;;;;;;4.80;4.40;;;;;;;-3.90;55.13;96023.34;5100361;28;20275;-72
2024/01/10 05:44:15;;;;;;;4.60;4.20;;;;;;;-3.96;54.91;96018.06;5100224;28;20649;-71
2024/01/10 05:46:43;;;;;;;4.20;3.78;;;;;;;-3.96;55.77;96013.53;5100488;28;20198;-71
2024/01/10 05:49:10;;;;;;;4.63;4.20;;;;;;;-3.93;55.94;96018.41;5099924;28;20207;-71
2024/01/10 05:51:38;;;;;;;4.30;4.00;;;;;;;-3.88;56.21;96023.94;5100012;28;20257;-71
2024/01/10 05:54:07;;;;;;;4.28;3.88;;;;;;;-3.87;55.95;96019.34;5099267;28;20245;-71
2024/01/10 05:56:34;;;;;;;5.30;4.50;;;;;;;-3.86;55.95;96021.00;5099618;28;20198;-71
2024/01/10 05:59:01;;;;;;;4.63;4.22;;;;;;;-3.82;56.29;96019.44;5100055;28;20252;-71
2024/01/10 06:01:28;;;;;;;4.35;3.95;;;;;;;-3.78;55.76;96023.28;5100128;28;20214;-71
2024/01/10 06:03:56;;;;;;;4.72;4.32;;;;;;;-3.78;54.40;96026.00;5100210;28;20208;-71
2024/01/10 06:06:23;;;;;;;5.50;5.00;;;;;;;-3.78;53.80;96033.28;5099991;28;20206;-71
2024/01/10 06:08:52;;;;;;;5.30;4.90;;;;;;;-3.76;54.65;96026.59;5099535;28;20191;-72
2024/01/10 06:11:20;;;;;;;5.28;4.88;;;;;;;-3.74;53.73;96039.81;5099787;28;20240;-70
2024/01/10 06:13:47;;;;;;;4.53;4.13;;;;;;;-3.74;53.92;96043.34;5099137;28;20219;-72
2024/01/10 06:16:14;;;;;;;5.38;4.60;;;;;;;-3.68;55.05;96036.16;5099951;28;20266;-71
2024/01/10 06:18:41;;;;;;;5.20;4.70;;;;;;;-3.65;54.22;96033.00;5099233;28;20252;-71
2024/01/10 06:21:09;;;;;;;5.55;5.05;;;;;;;-3.63;54.36;96039.81;5099632;28;20199;-71
2024/01/10 06:23:36;;;;;;;5.97;5.38;;;;;;;-3.62;54.79;96035.22;5098966;28;20215;-71
2024/01/10 06:26:04;;;;;;;4.38;3.97;;;;;;;-3.61;53.55;96047.63;5099880;28;20253;-71
2024/01/10 06:28:31;;;;;;;4.90;4.40;;;;;;;-3.65;53.72;96044.59;5099495;28;20223;-68
2024/01/10 06:30:58;;;;;;;5.97;5.38;;;;;;;-3.65;53.74;96049.19;5098896;28;20599;-69
2024/01/10 06:33:25;;;;;;;5.07;4.60;;;;;;;-3.67;52.95;96064.75;5098836;28;20478;-70
2024/01/10 06:35:53;;;;;;;3.97;3.58;;;;;;;-3.63;53.91;96060.56;5099502;28;20223;-70
2024/01/10 06:38:22;;;;;;;4.55;4.15;;;;;;;-3.60;53.88;96048.44;5098878;28;20203;-71
2024/01/10 06:40:50;;;;;;;6.75;5.78;;;;;;;-3.63;54.15;96061.38;5098928;28;20227;-70
2024/01/10 06:43:18;;;;;;;6.28;5.75;;;;;;;-3.60;53.94;96059.25;5116472;28;20211;-70
2024/01/10 06:45:46;;;;;;;6.60;6.00;;;;;;;-3.69;53.47;96064.19;5099475;28;20187;-69
2024/01/10 06:48:13;;;;;;;7.22;6.63;;;;;;;-3.75;53.94;96074.03;5098926;28;20203;-69
2024/01/10 06:50:40;;;;;;;7.63;6.93;;;;;;;-3.77;54.23;96069.97;5098539;28;20253;-70
2024/01/10 06:53:08;;;;;;;8.07;7.28;;;;;;;-3.75;54.38;96070.53;5098930;28;20207;-70
2024/01/10 20:31:05;;;;;;;46.90;42.28;;;;;;;-3.17;67.24;95935.41;4960762;28;20244;-71
2024/01/10 20:33:33;;;;;;;34.83;31.17;;;;;;;-3.16;66.45;95930.81;5061707;28;20197;-71
2024/01/10 20:36:03;;;;;;;33.50;30.00;;;;;;;-3.13;66.60;95935.72;5061622;28;20262;-71
2024/01/10 20:38:30;;;;;;;34.83;31.20;;;;;;;-3.10;66.69;95935.25;5061827;28;20193;-71
2024/01/10 20:40:57;;;;;;;41.70;37.47;;;;;;;-3.13;66.46;95934.91;5060695;28;20247;-71
2024/01/10 20:43:26;;;;;;;41.72;37.72;;;;;;;-3.14;67.00;95939.50;5061053;28;20255;-71
2024/01/10 20:45:53;;;;;;;33.20;30.00;;;;;;;-3.16;66.91;95945.16;5061197;28;20208;-71
2024/01/10 20:48:22;;;;;;;30.70;27.60;;;;;;;-3.16;66.09;95938.91;5060573;28;20259;-71
2024/01/10 20:50:49;;;;;;;32.00;28.70;;;;;;;-3.20;65.47;95941.28;5077494;28;20220;-71
2024/01/10 20:53:16;;;;;;;36.35;32.83;;;;;;;-3.20;66.85;95953.97;5061104;28;20208;-71
2024/01/10 20:55:43;;;;;;;37.45;33.75;;;;;;;-3.27;66.62;95956.84;5061340;28;20200;-71
2024/01/10 20:58:10;;;;;;;35.22;31.73;;;;;;;-3.30;66.71;95951.94;5061005;28;20185;-71
2024/01/10 21:00:38;;;;;;;32.78;29.52;;;;;;;-3.28;66.80;95954.38;5077035;28;20197;-71
2024/01/10 21:03:05;;;;;;;36.10;32.60;;;;;;;-3.31;66.95;95958.38;5077873;28;20201;-71
2024/01/10 21:05:34;;;;;;;35.00;31.60;;;;;;;-3.39;67.20;95956.88;5077497;28;20212;-71
2024/01/10 21:08:01;;;;;;;36.47;32.97;;;;;;;-3.44;67.60;95954.13;5061372;28;20197;-71
2024/01/10 21:10:28;;;;;;;36.45;32.95;;;;;;;-3.44;67.88;95961.38;5060539;28;20216;-71
2024/01/10 21:12:55;;;;;;;36.50;33.00;;;;;;;-3.43;67.66;95957.63;5060947;28;20205;-71
2024/01/10 21:15:22;;;;;;;35.65;32.17;;;;;;;-3.48;67.05;95961.06;5060776;28;20234;-72
2024/01/10 21:17:49;;;;;;;38.72;35.13;;;;;;;-3.50;67.51;95957.78;5059649;28;20495;-71
2024/01/10 21:20:16;;;;;;;36.10;32.38;;;;;;;-3.48;67.82;95958.34;5076979;28;20205;-71
2024/01/10 21:22:44;;;;;;;38.95;35.08;;;;;;;-3.48;67.30;95957.53;5060950;28;20189;-71
2024/01/10 21:25:12;;;;;;;42.42;38.33;;;;;;;-3.54;67.33;95962.00;5060392;28;20698;-71
2024/01/10 21:27:39;;;;;;;45.53;40.95;;;;;;;-3.70;66.68;95960.94;5060707;28;20301;-71
2024/01/10 21:30:07;;;;;;;43.42;39.22;;;;;;;-3.86;67.67;95964.38;5059964;28;20201;-71
2024/01/10 21:32:34;;;;;;;44.67;40.28;;;;;;;-3.93;67.69;95969.09;5060870;28;20239;-71
2024/01/10 21:35:01;;;;;;;43.45;39.15;;;;;;;-3.91;68.14;95962.41;5060530;28;20213;-71
2024/01/10 21:37:28;;;;;;;42.65;38.30;;;;;;;-3.90;68.12;95961.34;5059769;28;20658;-71
2024/01/10 21:39:56;;;;;;;44.45;39.95;;;;;;;-3.84;67.89;95964.16;5076346;28;20222;-71
2024/01/10 21:42:25;;;;;;;40.92;36.85;;;;;;;-3.82;67.52;95964.72;5077388;28;20266;-71
2024/01/10 21:44:52;;;;;;;43.60;39.33;;;;;;;-3.87;67.24;95963.56;5076311;28;20221;-71
2024/01/10 21:47:19;;;;;;;44.83;40.25;;;;;;;-3.97;67.96;95967.94;5077277;28;20205;-71
2024/01/10 21:49:46;;;;;;;40.35;36.15;;;;;;;-4.00;67.70;95960.31;5059386;28;20283;-71
2024/01/10 21:52:13;;;;;;;39.35;35.47;;;;;;;-4.03;68.18;95964.34;5060128;28;20197;-71
2024/01/10 21:54:40;;;;;;;39.08;35.38;;;;;;;-3.99;68.47;95964.69;5076778;28;20209;-72
2024/01/10 21:57:08;;;;;;;37.58;33.95;;;;;;;-3.95;68.42;95966.66;5059657;28;20235;-71
2024/01/10 21:59:35;;;;;;;32.75;29.45;;;;;;;-3.98;67.98;95967.13;5059996;28;20262;-71
2024/01/10 22:02:02;;;;;;;35.88;32.17;;;;;;;-3.99;67.53;95965.50;5059150;28;20243;-71
2024/01/10 22:04:29;;;;;;;33.15;29.83;;;;;;;-3.96;68.18;95965.03;5059531;28;20220;-71
2024/01/10 22:06:57;;;;;;;35.08;31.52;;;;;;;-3.97;68.04;95962.53;5059879;28;20193;-71
2024/01/10 22:09:24;;;;;;;33.60;30.30;;;;;;;-3.96;68.24;95964.19;5075639;28;20258;-71
2024/01/10 22:11:51;;;;;;;37.70;34.05;;;;;;;-4.00;67.69;95963.84;5077005;28;20201;-71
2024/01/10 22:14:19;;;;;;;24.63;22.08;;;;;;;-4.05;67.99;95957.53;5077447;28;20247;-71
2024/01/10 22:16:46;;;;;;;35.92;32.40;;;;;;;-4.11;67.69;95959.31;5059658;28;20707;-71
2024/01/10 22:19:13;;;;;;;35.97;32.38;;;;;;;-4.12;68.14;95966.56;5059754;28;20240;-71
2024/01/10 22:21:40;;;;;;;33.15;29.88;;;;;;;-4.13;68.79;95959.56;5059287;28;20239;-71
2024/01/10 22:24:08;;;;;;;32.30;29.17;;;;;;;-4.15;68.64;95948.19;5075468;28;20290;-71
2024/01/10 22:26:35;;;;;;;30.38;27.27;;;;;;;-4.16;68.16;95943.88;5059588;28;20204;-71
2024/01/10 22:29:02;;;;;;;29.27;26.45;;;;;;;-4.17;68.64;95949.50;5058876;28;20225;-71
2024/01/10 22:31:30;;;;;;;30.95;27.77;;;;;;;-4.22;67.91;95934.03;5058559;28;20656;-71
2024/01/10 22:33:57;;;;;;;29.90;27.10;;;;;;;-4.21;68.34;95932.16;5059647;28;20197;-71
2024/01/10 22:36:25;;;;;;;29.08;26.15;;;;;;;-4.21;68.50;95937.53;5058532;28;20590;-71
2024/01/10 22:38:52;;;;;;;26.77;24.17;;;;;;;-4.17;68.42;95933.34;5059235;28;20201;-71
2024/01/10 22:41:19;;;;;;;27.50;25.00;;;;;;;-4.17;67.82;95936.84;5058742;28;20266;-71
2024/01/10 22:43:46;;;;;;;27.58;24.85;;;;;;;-4.15;68.09;95936.59;5058657;28;20267;-71
2024/01/10 22:46:13;;;;;;;25.27;22.95;;;;;;;-4.15;67.96;95926.63;5058954;28;20221;-71
2024/01/10 22:48:42;;;;;;;26.20;23.73;;;;;;;-4.16;67.70;95926.88;5075254;28;20197;-71
2024/01/10 22:51:09;;;;;;;24.33;21.92;;;;;;;-4.17;67.88;95922.56;5058536;28;20256;-71
2024/01/10 22:53:36;;;;;;;26.20;23.67;;;;;;;-4.19;68.16;95917.41;5058592;28;20209;-71
2024/01/10 22:56:03;;;;;;;25.88;23.38;;;;;;;-4.23;67.87;95918.94;5058975;28;20204;-71
2024/01/10 22:58:30;;;;;;;27.98;25.17;;;;;;;-4.20;68.29;95912.25;5058351;28;20208;-71
2024/01/10 23:00:58;;;;;;;29.33;26.23;;;;;;;-4.25;67.89;95914.84;5076142;28;20186;-71
2024/01/10 23:03:24;;;;;;;22.88;20.67;;;;;;;-4.30;67.41;95902.09;5058710;28;20205;-71
2024/01/10 23:05:53;;;;;;;26.92;24.33;;;;;;;-4.37;68.06;95913.00;5058824;28;20316;-71
2024/01/10 23:08:20;;;;;;;27.90;25.40;;;;;;;-4.39;68.35;95909.75;5058738;28;20254;-71
2024/01/10 23:10:47;;;;;;;26.73;24.17;;;;;;;-4.39;68.61;95912.44;5058060;28;20201;-71
2024/01/10 23:13:14;;;;;;;25.88;23.38;;;;;;;-4.39;68.50;95907.03;5075078;28;20258;-71
2024/01/10 23:15:41;;;;;;;25.33;22.85;;;;;;;-4.39;68.86;95901.66;5058725;28;20197;-71
2024/01/10 23:18:07;;;;;;;34.60;30.98;;;;;;;-4.41;68.52;95901.06;5059005;28;20209;-71
2024/01/10 23:20:34;;;;;;;34.25;30.98;;;;;;;-4.44;68.59;95893.47;5058770;28;20266;-71
2024/01/10 23:23:03;;;;;;;31.58;28.48;;;;;;;-4.42;69.06;95894.06;5058562;28;20205;-71
2024/01/10 23:25:30;;;;;;;28.77;25.95;;;;;;;-4.40;68.68;95891.91;5075113;28;20706;-71
2024/01/10 23:27:57;;;;;;;30.13;27.27;;;;;;;-4.39;68.32;95890.88;5075388;28;20218;-71
2024/01/10 23:30:24;;;;;;;21.75;19.65;;;;;;;-4.40;68.50;95881.16;5057701;28;20294;-71
2024/01/10 23:32:51;;;;;;;19.38;17.52;;;;;;;-4.41;68.54;95882.22;5075044;28;20205;-71
2024/01/10 23:35:18;;;;;;;18.08;16.42;;;;;;;-4.41;67.77;95874.13;5058171;28;20205;-71
2024/01/10 23:37:45;;;;;;;21.98;19.95;;;;;;;-4.42;67.83;95869.00;5074842;28;20201;-71
2024/01/10 23:40:15;;;;;;;26.13;23.55;;;;;;;-4.54;67.98;95871.72;5058399;28;20201;-71
2024/01/10 23:42:42;;;;;;;24.65;22.25;;;;;;;-4.53;68.51;95876.06;5075507;28;20239;-71
2024/01/10 23:45:10;;;;;;;20.73;18.75;;;;;;;-4.61;68.63;95877.25;5057662;28;20225;-71
2024/01/10 23:47:37;;;;;;;19.77;17.88;;;;;;;-4.66;69.09;95874.44;5057189;28;20216;-71
2024/01/10 23:50:04;;;;;;;19.77;17.88;;;;;;;-4.78;68.20;95868.25;5073283;28;20197;-71
2024/01/10 23:52:31;;;;;;;20.42;18.42;;;;;;;-4.91;67.70;95874.72;5057919;28;20255;-71
2024/01/10 23:54:58;;;;;;;20.15;18.33;;;;;;;-4.95;68.05;95862.78;5058263;28;20205;-71
2024/01/10 23:57:27;;;;;;;21.20;18.98;;;;;;;-4.89;68.43;95863.72;5074700;28;20197;-71
2024/01/10 23:59:54;;;;;;;19.30;17.40;;;;;;;-4.90;68.25;95860.22;5057824;28;20205;-71
